Time;durP1;ratioP1;P1;durP2;ratioP2;P2;SDS_P1;SDS_P2;PMS_P1;PMS_P2;Temp;Humidity;BMP_temperature;BMP_pressure;BME280_temperature;BME280_humidity;BME280_pressure;Samples;Min_cycle;Max_cycle;Signal;HPM_P1;HPM_P2
2021/10/15 00:01:42;;;;;;;6.70;5.07;;;6.50;93.40;;;;;;4892786;29;20020;-65
2021/10/15 00:04:08;;;;;;;6.32;4.55;;;6.40;93.40;;;;;;4892091;29;20029;-65
2021/10/15 00:06:33;;;;;;;5.95;4.93;;;6.40;93.50;;;;;;4879291;29;20028;-66
2021/10/15 00:08:59;;;;;;;6.40;4.93;;;6.30;93.50;;;;;;4884039;29;20680;-65
2021/10/15 00:11:24;;;;;;;5.03;4.50;;;6.30;93.50;;;;;;4897442;29;20084;-64
2021/10/15 00:13:50;;;;;;;6.30;5.00;;;6.30;93.50;;;;;;4889673;29;20039;-65
2021/10/15 00:16:16;;;;;;;5.90;4.53;;;6.30;93.60;;;;;;4889299;29;20100;-65
2021/10/15 00:18:42;;;;;;;5.85;4.57;;;6.30;93.60;;;;;;4890097;29;20025;-65
2021/10/15 00:21:08;;;;;;;7.03;5.05;;;6.30;93.60;;;;;;4876882;29;20061;-64
2021/10/15 00:23:33;;;;;;;4.95;4.43;;;6.30;93.50;;;;;;4872003;29;20030;-65
2021/10/15 00:26:00;;;;;;;5.75;4.13;;;6.30;93.50;;;;;;4878180;29;20071;-64
2021/10/15 00:28:25;;;;;;;5.05;4.55;;;6.20;93.50;;;;;;4879038;29;20029;-64
2021/10/15 00:30:51;;;;;;;5.80;4.50;;;6.20;93.50;;;;;;4883618;29;20382;-65
2021/10/15 00:33:17;;;;;;;5.18;4.60;;;6.20;93.50;;;;;;4883290;29;20036;-64
2021/10/15 00:35:42;;;;;;;5.25;4.32;;;6.20;93.50;;;;;;4894286;29;20076;-66
2021/10/15 00:38:08;;;;;;;6.80;4.53;;;6.20;93.50;;;;;;4877402;29;20048;-64
2021/10/15 00:40:33;;;;;;;9.23;4.93;;;6.10;93.40;;;;;;4881054;29;20469;-65
2021/10/15 00:42:59;;;;;;;6.25;4.80;;;6.10;93.50;;;;;;4884243;29;20473;-65
2021/10/15 00:45:24;;;;;;;6.38;5.32;;;6.10;93.60;;;;;;4881633;29;20032;-66
2021/10/15 00:47:50;;;;;;;10.18;6.03;;;6.10;93.50;;;;;;4879991;29;20041;-65
2021/10/15 00:50:16;;;;;;;11.95;5.57;;;6.10;93.50;;;;;;4882102;29;20040;-68
2021/10/15 00:52:42;;;;;;;17.77;5.00;;;6.00;93.40;;;;;;4877583;29;20116;-64
2021/10/15 00:55:07;;;;;;;11.60;5.22;;;5.90;93.40;;;;;;4878080;29;20504;-64
2021/10/15 00:57:33;;;;;;;6.88;5.50;;;5.80;93.50;;;;;;4878084;29;20025;-64
2021/10/15 00:59:59;;;;;;;13.85;5.57;;;5.80;93.60;;;;;;4878203;29;20037;-65
2021/10/15 01:02:24;;;;;;;11.07;4.28;;;5.80;93.60;;;;;;4878201;29;20056;-65
2021/10/15 01:04:50;;;;;;;8.25;4.20;;;5.70;93.50;;;;;;4877405;29;20061;-65
2021/10/15 01:07:16;;;;;;;8.60;3.92;;;5.60;93.50;;;;;;4877190;29;20131;-66
2021/10/15 01:09:41;;;;;;;6.30;4.65;;;5.60;93.70;;;;;;4885950;29;20108;-67
2021/10/15 01:12:07;;;;;;;5.20;4.60;;;5.60;93.80;;;;;;4878017;29;20064;-66
2021/10/15 01:14:33;;;;;;;15.60;4.93;;;5.60;93.90;;;;;;4878333;29;20025;-65
2021/10/15 01:17:04;;;;;;;21.10;5.30;;;5.60;93.80;;;;;;4886499;29;20076;-66
2021/10/15 01:19:31;;;;;;;34.08;5.50;;;5.60;93.80;;;;;;4882566;29;20056;-65
2021/10/15 01:22:06;;;;;;;28.55;5.30;;;5.60;93.60;;;;;;4864868;29;20068;-66
2021/10/15 01:24:32;;;;;;;62.80;6.15;;;5.50;93.60;;;;;;4876910;29;20486;-66
2021/10/15 01:27:08;;;;;;;7.25;4.82;;;5.50;93.70;;;;;;4883564;29;20052;-65
2021/10/15 01:29:35;;;;;;;9.65;5.00;;;5.40;93.60;;;;;;4881946;29;20044;-66
2021/10/15 01:32:02;;;;;;;12.23;5.65;;;5.40;93.70;;;;;;4877346;29;20100;-65
2021/10/15 01:34:27;;;;;;;16.92;5.68;;;5.40;93.80;;;;;;4877107;29;20443;-65
2021/10/15 01:36:53;;;;;;;7.40;5.57;;;5.30;93.70;;;;;;4882208;29;20029;-64
2021/10/15 01:39:18;;;;;;;8.20;5.10;;;5.30;93.70;;;;;;4888016;29;20056;-66
2021/10/15 01:41:44;;;;;;;6.10;4.68;;;5.30;93.80;;;;;;4882129;29;20068;-65
2021/10/15 01:44:10;;;;;;;11.82;4.97;;;5.30;93.90;;;;;;4882798;29;20375;-65
2021/10/15 01:46:35;;;;;;;6.65;4.88;;;5.30;93.90;;;;;;4876953;29;20113;-65
2021/10/15 01:49:01;;;;;;;6.07;4.80;;;5.30;93.90;;;;;;4876857;29;20044;-65
2021/10/15 01:51:26;;;;;;;6.57;4.78;;;5.30;93.90;;;;;;4878344;29;20117;-65
2021/10/15 01:53:52;;;;;;;7.65;4.50;;;5.30;94.00;;;;;;4876149;29;20497;-66
2021/10/15 01:56:18;;;;;;;6.07;4.80;;;5.30;93.90;;;;;;4880228;29;20056;-65
2021/10/15 01:58:43;;;;;;;8.10;5.28;;;5.30;93.90;;;;;;4880580;29;20036;-65
2021/10/15 02:01:09;;;;;;;6.57;4.88;;;5.30;93.90;;;;;;4883512;29;20021;-66
2021/10/15 02:03:34;;;;;;;6.82;5.07;;;5.30;94.00;;;;;;4876509;29;20029;-65
2021/10/15 02:06:00;;;;;;;5.78;5.07;;;5.20;93.90;;;;;;4876692;29;20033;-65
2021/10/15 02:08:26;;;;;;;5.88;4.75;;;5.20;93.90;;;;;;4877159;29;20446;-66
2021/10/15 02:10:51;;;;;;;5.93;4.82;;;5.20;94.00;;;;;;4877034;29;20029;-65
2021/10/15 02:13:17;;;;;;;6.88;5.53;;;5.20;94.00;;;;;;4879196;29;20037;-66
2021/10/15 02:15:42;;;;;;;6.53;5.10;;;5.20;94.00;;;;;;4881256;29;20041;-65
2021/10/15 02:18:08;;;;;;;7.38;5.55;;;5.20;94.10;;;;;;4876990;29;20048;-65
2021/10/15 02:20:34;;;;;;;7.53;5.03;;;5.20;94.10;;;;;;4877691;29;20059;-65
2021/10/15 02:22:59;;;;;;;8.45;5.78;;;5.20;94.10;;;;;;4875769;29;20116;-65
2021/10/15 02:25:25;;;;;;;7.28;5.25;;;5.30;94.10;;;;;;4876491;29;20045;-66
2021/10/15 02:27:51;;;;;;;9.63;5.78;;;5.30;94.00;;;;;;4876856;29;20057;-65
2021/10/15 02:30:18;;;;;;;7.65;4.97;;;5.20;93.90;;;;;;4884007;29;20041;-64
2021/10/15 02:32:46;;;;;;;14.05;5.25;;;5.10;93.90;;;;;;4887799;29;21664;-65
2021/10/15 02:35:12;;;;;;;7.78;4.53;;;5.00;93.90;;;;;;4877102;29;20018;-65
2021/10/15 02:37:38;;;;;;;16.70;4.82;;;4.80;93.90;;;;;;4882243;29;20033;-66
2021/10/15 02:40:05;;;;;;;9.55;5.18;;;4.80;94.00;;;;;;4889210;29;20076;-66
2021/10/15 02:42:32;;;;;;;22.55;4.57;;;4.70;94.00;;;;;;4891042;29;20025;-64
2021/10/15 02:44:57;;;;;;;27.10;4.13;;;4.60;94.00;;;;;;4877348;29;20779;-65
2021/10/15 02:47:23;;;;;;;14.82;4.85;;;4.50;94.00;;;;;;4876490;29;20104;-65
2021/10/15 02:49:50;;;;;;;6.50;4.50;;;4.50;94.00;;;;;;4874875;29;20041;-66
2021/10/15 02:52:17;;;;;;;6.53;4.25;;;4.50;94.20;;;;;;4876668;29;20024;-65
2021/10/15 02:54:43;;;;;;;4.57;4.10;;;4.40;94.20;;;;;;4875631;29;20390;-65
2021/10/15 02:57:08;;;;;;;4.45;3.67;;;4.40;94.20;;;;;;4875028;29;20024;-66
2021/10/15 02:59:34;;;;;;;4.43;4.03;;;4.40;94.20;;;;;;4880814;29;20033;-66
2021/10/15 03:02:00;;;;;;;4.53;4.03;;;4.50;94.30;;;;;;4890206;29;20033;-64
2021/10/15 03:04:26;;;;;;;4.32;3.90;;;4.50;94.30;;;;;;4892477;29;20029;-65
2021/10/15 03:06:51;;;;;;;4.75;4.00;;;4.50;94.20;;;;;;4879667;29;20104;-65
2021/10/15 03:09:17;;;;;;;5.25;4.20;;;4.50;94.20;;;;;;4879378;29;20128;-65
2021/10/15 03:11:42;;;;;;;4.28;3.88;;;4.50;94.20;;;;;;4880126;29;20029;-65
2021/10/15 03:14:08;;;;;;;4.85;4.35;;;4.50;94.20;;;;;;4878975;29;20037;-66
2021/10/15 03:16:34;;;;;;;4.22;3.83;;;4.50;94.30;;;;;;4880026;29;20029;-65
2021/10/15 03:18:59;;;;;;;4.80;3.63;;;4.50;94.30;;;;;;4882066;29;20081;-65
2021/10/15 03:21:25;;;;;;;6.68;3.72;;;4.50;94.20;;;;;;4888408;29;20025;-65
2021/10/15 03:23:50;;;;;;;5.22;3.90;;;4.50;94.20;;;;;;4887359;29;20085;-66
2021/10/15 03:26:16;;;;;;;6.13;3.88;;;4.50;94.30;;;;;;4880215;29;20075;-66
2021/10/15 03:28:42;;;;;;;6.30;4.00;;;4.50;94.20;;;;;;4879346;29;20037;-66
2021/10/15 03:31:07;;;;;;;6.15;4.20;;;4.50;94.20;;;;;;4889572;29;20482;-66
2021/10/15 03:33:33;;;;;;;7.40;3.90;;;4.40;94.10;;;;;;4878927;29;20450;-66
2021/10/15 03:36:00;;;;;;;6.65;3.90;;;4.40;94.20;;;;;;4878206;29;20033;-66
2021/10/15 03:38:25;;;;;;;5.47;3.67;;;4.40;94.20;;;;;;4878436;29;20036;-65
2021/10/15 03:40:51;;;;;;;4.85;4.15;;;4.40;94.10;;;;;;4876505;29;20037;-66
2021/10/15 03:43:17;;;;;;;4.53;4.07;;;4.40;94.10;;;;;;4876148;29;20041;-65
2021/10/15 03:45:42;;;;;;;4.82;4.05;;;4.30;94.10;;;;;;4891403;29;20020;-66
2021/10/15 03:48:08;;;;;;;4.22;3.65;;;4.40;94.20;;;;;;4884629;29;20040;-65
2021/10/15 03:50:33;;;;;;;6.55;4.07;;;4.40;94.20;;;;;;4879584;29;20032;-66
2021/10/15 03:52:59;;;;;;;5.70;4.10;;;4.30;94.20;;;;;;4877527;29;20072;-65
2021/10/15 03:55:26;;;;;;;5.07;4.10;;;4.30;94.10;;;;;;4882408;29;20461;-64
2021/10/15 03:57:52;;;;;;;6.40;4.10;;;4.30;94.10;;;;;;4889629;29;20025;-66
2021/10/15 04:00:18;;;;;;;4.45;3.85;;;4.30;94.10;;;;;;4887194;29;20569;-64
2021/10/15 04:02:45;;;;;;;4.63;4.00;;;4.30;94.10;;;;;;4888416;29;20033;-67
2021/10/15 04:05:12;;;;;;;4.30;3.90;;;4.30;94.20;;;;;;4890655;29;20057;-65
2021/10/15 04:07:39;;;;;;;4.20;3.38;;;4.30;94.20;;;;;;4881265;29;20471;-66
2021/10/15 04:10:06;;;;;;;4.80;4.30;;;4.30;94.10;;;;;;4897327;29;20099;-66
2021/10/15 04:12:32;;;;;;;5.95;4.20;;;4.30;94.10;;;;;;4888203;29;20029;-66
2021/10/15 04:14:59;;;;;;;7.57;4.38;;;4.20;94.00;;;;;;4877738;29;20035;-66
2021/10/15 04:17:25;;;;;;;6.40;4.63;;;4.10;94.00;;;;;;4869271;29;20029;-66
2021/10/15 04:19:50;;;;;;;10.20;4.30;;;4.10;94.10;;;;;;4878983;29;20049;-65
2021/10/15 04:22:16;;;;;;;6.40;4.47;;;4.10;94.10;;;;;;4878423;29;20025;-65
2021/10/15 04:24:42;;;;;;;5.85;4.47;;;4.10;94.00;;;;;;4913377;23;20051;-69
2021/10/15 04:27:08;;;;;;;16.00;4.95;;;4.00;93.90;;;;;;4897001;29;20136;-68
2021/10/15 04:29:33;;;;;;;14.63;4.40;;;4.00;93.90;;;;;;4896858;29;20477;-68
2021/10/15 04:32:00;;;;;;;14.20;4.72;;;3.90;93.90;;;;;;4893701;29;20037;-68
2021/10/15 04:34:25;;;;;;;6.05;4.43;;;3.80;94.00;;;;;;4896322;29;20091;-68
2021/10/15 04:36:51;;;;;;;6.45;4.88;;;3.80;94.10;;;;;;4888686;29;20111;-68
2021/10/15 04:39:17;;;;;;;7.40;5.22;;;3.70;94.20;;;;;;4896939;29;20036;-68
2021/10/15 04:41:42;;;;;;;5.97;4.57;;;3.80;94.20;;;;;;4884416;29;20107;-68
2021/10/15 04:44:08;;;;;;;4.75;4.22;;;3.80;94.20;;;;;;4896021;29;20119;-68
2021/10/15 04:46:34;;;;;;;5.47;4.70;;;3.80;94.30;;;;;;4892299;29;20032;-67
2021/10/15 04:48:59;;;;;;;6.47;4.82;;;3.80;94.30;;;;;;4893646;29;20405;-68
2021/10/15 04:51:25;;;;;;;5.85;4.70;;;3.80;94.20;;;;;;4888107;29;20490;-68
2021/10/15 04:53:51;;;;;;;6.45;4.65;;;3.80;94.20;;;;;;4881488;29;20037;-67
2021/10/15 04:56:16;;;;;;;4.82;4.07;;;3.80;94.20;;;;;;4880621;29;20029;-68
2021/10/15 04:58:42;;;;;;;5.13;4.00;;;3.80;94.20;;;;;;4895519;29;20021;-68
2021/10/15 05:01:07;;;;;;;6.72;4.70;;;3.70;94.20;;;;;;4896340;29;20235;-74
2021/10/15 05:03:33;;;;;;;5.15;4.05;;;3.70;94.20;;;;;;4891906;29;20028;-67
2021/10/15 05:05:58;;;;;;;5.28;3.78;;;3.70;94.20;;;;;;4885712;29;20029;-68
2021/10/15 05:08:30;;;;;;;5.40;4.05;;;3.70;94.20;;;;;;4887823;29;20059;-67
2021/10/15 05:10:55;;;;;;;6.07;3.42;;;3.70;94.20;;;;;;4889449;29;20028;-68
2021/10/15 05:13:21;;;;;;;7.72;5.25;;;3.70;94.10;;;;;;4887448;29;20664;-68
2021/10/15 05:15:47;;;;;;;6.88;4.55;;;3.70;94.20;;;;;;4895224;29;20036;-68
2021/10/15 05:18:17;;;;;;;6.10;4.40;;;3.70;94.40;;;;;;4892971;29;20020;-67
2021/10/15 05:20:44;;;;;;;5.75;4.43;;;3.60;94.20;;;;;;4893801;29;20024;-67
2021/10/15 05:23:10;;;;;;;4.80;4.30;;;3.60;94.20;;;;;;4880870;29;20028;-67
2021/10/15 05:25:36;;;;;;;4.25;3.78;;;3.70;94.30;;;;;;4891160;29;20123;-68
2021/10/15 05:28:04;;;;;;;4.75;4.28;;;3.60;94.20;;;;;;4886781;29;20112;-69
2021/10/15 05:30:30;;;;;;;4.47;3.88;;;3.60;94.20;;;;;;4894720;29;20059;-68
2021/10/15 05:32:56;;;;;;;5.85;4.50;;;3.70;94.20;;;;;;4891624;29;20033;-68
2021/10/15 05:35:22;;;;;;;6.03;4.30;;;3.70;94.20;;;;;;4894597;29;20028;-68
2021/10/15 05:37:47;;;;;;;5.82;4.22;;;3.70;94.20;;;;;;4890497;29;20060;-68
2021/10/15 05:40:13;;;;;;;6.07;4.53;;;3.70;94.20;;;;;;4876242;29;20029;-69
2021/10/15 05:42:49;;;;;;;10.70;6.68;;;3.70;94.20;;;;;;4892820;29;20111;-68
2021/10/15 05:45:15;;;;;;;10.38;6.95;;;3.70;94.20;;;;;;4895873;29;20389;-69
2021/10/15 05:47:41;;;;;;;9.15;6.70;;;3.70;94.20;;;;;;4889691;29;20040;-67
2021/10/15 05:50:08;;;;;;;17.25;10.68;;;3.80;94.20;;;;;;4877794;29;20020;-69
2021/10/15 05:52:38;;;;;;;11.25;7.63;;;3.80;94.20;;;;;;4888491;29;20623;-68
2021/10/15 05:59:58;;;;;;;7.45;5.28;;;3.90;94.10;;;;;;4886178;29;20025;-67
2021/10/15 06:02:30;;;;;;;8.10;4.72;;;3.90;94.20;;;;;;4895388;29;20108;-68
2021/10/15 06:15:46;;;;;;;10.68;5.70;;;4.00;94.10;;;;;;4893225;29;20533;-67
2021/10/15 06:18:15;;;;;;;13.27;6.22;;;4.00;94.10;;;;;;4880066;29;20033;-68
2021/10/15 06:20:41;;;;;;;9.30;5.95;;;4.00;94.10;;;;;;4881402;29;20020;-67
2021/10/15 06:23:08;;;;;;;9.20;6.07;;;4.10;94.10;;;;;;4888418;29;20029;-67
2021/10/15 06:25:34;;;;;;;11.00;5.85;;;4.00;94.00;;;;;;4890180;29;20433;-68
2021/10/15 06:28:02;;;;;;;9.30;5.88;;;4.00;94.00;;;;;;4894238;29;20033;-70
2021/10/15 06:30:31;;;;;;;7.60;5.38;;;4.00;94.10;;;;;;4884932;29;20037;-68
2021/10/15 06:32:57;;;;;;;11.05;5.65;;;4.10;94.20;;;;;;4880868;29;20508;-67
2021/10/15 06:35:23;;;;;;;7.03;5.32;;;4.10;94.20;;;;;;4886868;29;20037;-67
2021/10/15 06:37:49;;;;;;;8.43;5.10;;;4.20;94.20;;;;;;4895532;29;20136;-68
2021/10/15 06:40:15;;;;;;;9.07;5.65;;;4.20;94.10;;;;;;4897694;29;20141;-67
2021/10/15 06:42:41;;;;;;;12.25;6.53;;;4.30;94.10;;;;;;4888170;29;20322;-67
2021/10/15 06:45:08;;;;;;;14.45;8.35;;;4.30;94.00;;;;;;4885388;29;20148;-68
2021/10/15 06:47:34;;;;;;;13.65;8.27;;;4.30;94.00;;;;;;4898751;29;20107;-70
2021/10/15 06:50:00;;;;;;;12.85;8.10;;;4.30;93.90;;;;;;4894142;29;20131;-67
2021/10/15 06:52:25;;;;;;;10.80;6.82;;;4.40;94.10;;;;;;4878823;29;20576;-66
2021/10/15 06:54:51;;;;;;;12.65;7.70;;;4.40;94.10;;;;;;4888642;29;20074;-67
2021/10/15 06:57:17;;;;;;;8.80;6.68;;;4.50;94.10;;;;;;4910528;29;20031;-68
2021/10/15 06:59:43;;;;;;;10.52;7.65;;;4.50;94.00;;;;;;4893483;29;20032;-67
2021/10/15 07:02:09;;;;;;;13.98;9.20;;;4.60;94.10;;;;;;4894479;29;20032;-70
2021/10/15 07:04:35;;;;;;;17.92;10.85;;;4.70;94.20;;;;;;4895297;29;20085;-68
2021/10/15 07:07:02;;;;;;;13.20;9.07;;;4.80;94.20;;;;;;4896143;29;20493;-68
2021/10/15 07:09:28;;;;;;;14.15;7.20;;;4.90;94.20;;;;;;4890568;29;20036;-69
2021/10/15 07:11:54;;;;;;;10.30;7.15;;;5.00;94.20;;;;;;4883599;29;20529;-67
2021/10/15 07:14:20;;;;;;;12.48;8.20;;;5.10;94.20;;;;;;4901048;29;20603;-67
2021/10/15 07:16:46;;;;;;;8.40;6.20;;;5.10;94.20;;;;;;4904142;29;20050;-68
2021/10/15 07:19:13;;;;;;;7.97;4.68;;;5.50;94.10;;;;;;4891800;29;20029;-67
2021/10/15 07:21:38;;;;;;;7.85;4.60;;;6.40;93.90;;;;;;4888109;29;20397;-67
2021/10/15 07:24:04;;;;;;;9.63;5.05;;;6.30;93.70;;;;;;4890113;29;20028;-67
2021/10/15 07:26:30;;;;;;;6.47;4.40;;;6.30;93.80;;;;;;4903147;29;20044;-68
2021/10/15 07:28:56;;;;;;;6.97;4.82;;;6.90;93.60;;;;;;4897090;29;20084;-68
2021/10/15 07:31:21;;;;;;;6.15;4.60;;;7.70;93.20;;;;;;4903074;29;20470;-69
2021/10/15 07:33:50;;;;;;;5.57;4.28;;;7.90;93.00;;;;;;4905481;29;20020;-66
2021/10/15 07:36:16;;;;;;;6.78;4.40;;;7.70;93.30;;;;;;4896133;29;20398;-69
2021/10/15 07:38:42;;;;;;;5.07;4.18;;;7.90;93.10;;;;;;4889098;29;20025;-67
2021/10/15 07:41:08;;;;;;;4.43;3.35;;;8.40;92.90;;;;;;4891801;29;20115;-69
2021/10/15 07:43:34;;;;;;;4.18;3.65;;;8.40;93.00;;;;;;4881561;29;20132;-66
2021/10/15 07:46:00;;;;;;;3.67;3.38;;;8.70;93.10;;;;;;4894351;29;20024;-68
2021/10/15 07:48:26;;;;;;;3.95;3.42;;;9.00;93.10;;;;;;4884805;29;20029;-68
2021/10/15 07:50:52;;;;;;;4.70;3.70;;;9.30;93.20;;;;;;4883424;29;20093;-68
2021/10/15 07:53:18;;;;;;;4.72;3.35;;;9.40;93.30;;;;;;4888457;29;20064;-67
2021/10/15 07:55:43;;;;;;;3.58;3.28;;;9.50;93.60;;;;;;4888203;29;20020;-67
2021/10/15 07:58:09;;;;;;;5.07;3.63;;;9.50;93.50;;;;;;4893641;29;20036;-67
2021/10/15 08:00:38;;;;;;;6.30;3.88;;;9.50;93.30;;;;;;4891863;29;20033;-67
2021/10/15 08:03:03;;;;;;;5.85;4.10;;;9.50;93.30;;;;;;4894131;29;20021;-68
2021/10/15 08:05:29;;;;;;;4.45;3.33;;;9.50;93.30;;;;;;4888384;29;20044;-67
2021/10/15 08:07:54;;;;;;;5.28;3.70;;;9.60;93.40;;;;;;4883907;29;20032;-67
2021/10/15 08:10:20;;;;;;;3.92;3.30;;;9.70;93.50;;;;;;4891381;29;20395;-67
2021/10/15 08:12:46;;;;;;;4.63;3.45;;;9.70;93.40;;;;;;4885516;29;20024;-67
2021/10/15 08:15:13;;;;;;;8.38;3.83;;;9.80;93.10;;;;;;4894655;29;20073;-67
2021/10/15 08:17:39;;;;;;;5.82;4.22;;;9.70;93.00;;;;;;4883583;29;20048;-68
2021/10/15 08:20:06;;;;;;;5.03;3.75;;;9.70;92.80;;;;;;4896686;29;20037;-69
2021/10/15 08:22:31;;;;;;;5.38;4.13;;;9.70;92.70;;;;;;4881470;29;20028;-69
2021/10/15 08:24:57;;;;;;;4.25;3.75;;;9.70;92.70;;;;;;4890952;29;20040;-67
2021/10/15 08:27:23;;;;;;;4.70;3.83;;;9.60;92.60;;;;;;4889650;29;20537;-67
2021/10/15 08:29:48;;;;;;;7.00;4.30;;;9.70;92.80;;;;;;4898494;29;20107;-67
2021/10/15 08:32:14;;;;;;;7.00;4.60;;;9.80;92.90;;;;;;4881852;29;20052;-67
2021/10/15 08:34:39;;;;;;;5.40;4.00;;;9.80;92.80;;;;;;4883068;29;20449;-68
2021/10/15 08:37:05;;;;;;;5.45;4.15;;;9.80;92.70;;;;;;4892277;29;20108;-67
2021/10/15 08:39:31;;;;;;;5.13;4.30;;;9.80;92.70;;;;;;4887467;29;20033;-68
2021/10/15 08:41:58;;;;;;;5.72;3.95;;;9.80;92.60;;;;;;4886001;29;20024;-67
2021/10/15 08:44:35;;;;;;;4.88;4.38;;;9.90;92.80;;;;;;4882090;29;20424;-67
2021/10/15 08:47:02;;;;;;;5.72;4.45;;;10.00;92.90;;;;;;4893139;29;20770;-68
2021/10/15 08:49:28;;;;;;;5.10;4.30;;;10.10;92.70;;;;;;4891886;29;20029;-68
2021/10/15 08:51:53;;;;;;;5.05;4.28;;;10.10;92.70;;;;;;4886869;29;20402;-67
2021/10/15 08:54:19;;;;;;;4.88;4.05;;;10.10;92.60;;;;;;4884653;29;20795;-67
2021/10/15 08:56:45;;;;;;;5.25;4.05;;;10.10;92.40;;;;;;4894380;29;20493;-67
2021/10/15 08:59:13;;;;;;;5.15;4.15;;;10.10;92.40;;;;;;4896102;29;20449;-68
2021/10/15 09:01:45;;;;;;;6.60;4.43;;;10.00;92.30;;;;;;4893792;29;20024;-67
2021/10/15 09:04:15;;;;;;;8.13;4.40;;;10.00;92.50;;;;;;4888434;29;20583;-67
2021/10/15 09:06:41;;;;;;;6.43;4.45;;;10.00;92.50;;;;;;4892199;29;20040;-66
2021/10/15 09:09:08;;;;;;;5.70;4.00;;;10.00;92.50;;;;;;4887197;29;20047;-68
2021/10/15 09:11:45;;;;;;;7.13;4.53;;;10.00;92.60;;;;;;4889264;29;20069;-67
2021/10/15 09:14:38;;;;;;;5.78;4.15;;;10.10;92.70;;;;;;4893097;29;20033;-67
2021/10/15 09:17:13;;;;;;;;;;;10.10;92.60;;;;;;4889861;29;20363;-67
2021/10/15 09:19:43;;;;;;;5.65;4.30;;;10.10;92.60;;;;;;4889947;29;20351;-67
2021/10/15 09:22:11;;;;;;;7.13;4.10;;;10.10;92.70;;;;;;4894842;29;20039;-67
2021/10/15 09:25:03;;;;;;;5.28;3.90;;;10.10;92.60;;;;;;4887110;29;20089;-67
2021/10/15 09:27:47;;;;;;;7.53;4.80;;;10.20;92.60;;;;;;4885557;29;20039;-67
2021/10/15 09:30:15;;;;;;;5.53;3.88;;;10.30;92.60;;;;;;4884571;29;20033;-67
2021/10/15 09:32:44;;;;;;;5.50;3.97;;;10.40;92.70;;;;;;4885711;29;20024;-66
2021/10/15 09:35:12;;;;;;;4.88;3.53;;;10.50;92.50;;;;;;4879031;29;20037;-67
2021/10/15 09:37:40;;;;;;;3.40;3.10;;;10.60;92.40;;;;;;4893675;29;20458;-67
2021/10/15 09:40:15;;;;;;;5.72;3.50;;;10.70;92.30;;;;;;4887633;29;20389;-67
2021/10/15 09:42:46;;;;;;;5.07;3.03;;;10.80;92.30;;;;;;4882367;29;20526;-67
2021/10/15 09:45:16;;;;;;;5.72;3.22;;;11.00;92.20;;;;;;4888016;29;20108;-68
2021/10/15 09:47:44;;;;;;;3.90;3.50;;;11.10;92.20;;;;;;4885133;29;20056;-67
2021/10/15 09:50:11;;;;;;;3.83;3.33;;;11.30;92.10;;;;;;4894405;29;20056;-67
2021/10/15 09:52:46;;;;;;;4.63;3.40;;;11.40;92.10;;;;;;4886652;29;20502;-68
2021/10/15 09:55:17;;;;;;;3.72;3.30;;;11.50;91.90;;;;;;4883637;29;20457;-67
2021/10/15 09:57:46;;;;;;;4.93;3.37;;;11.60;91.90;;;;;;4884786;29;20021;-67
2021/10/15 10:00:21;;;;;;;7.45;3.70;;;11.70;91.90;;;;;;4884874;29;20025;-67
2021/10/15 10:02:47;;;;;;;3.58;3.10;;;11.90;91.80;;;;;;4891161;29;20025;-67
2021/10/15 10:05:15;;;;;;;3.88;3.20;;;12.00;91.80;;;;;;4886358;29;20037;-67
2021/10/15 10:07:43;;;;;;;4.07;3.10;;;12.10;91.80;;;;;;4881629;29;20474;-67
2021/10/15 10:10:12;;;;;;;3.33;3.05;;;12.20;91.70;;;;;;4899204;29;20122;-67
2021/10/15 10:12:38;;;;;;;5.80;3.05;;;12.30;91.70;;;;;;4911490;29;20028;-67
2021/10/15 10:15:06;;;;;;;5.32;2.80;;;12.40;91.60;;;;;;4914690;29;20112;-69
2021/10/15 10:17:36;;;;;;;4.13;2.50;;;12.40;91.50;;;;;;4886027;29;20025;-67
2021/10/15 10:20:08;;;;;;;3.10;2.22;;;12.40;91.30;;;;;;4888728;29;20490;-67
2021/10/15 10:22:36;;;;;;;2.00;1.85;;;12.50;91.20;;;;;;4888020;29;20427;-67
2021/10/15 10:25:03;;;;;;;2.47;1.88;;;12.60;91.20;;;;;;4911727;23;20466;-66
2021/10/15 10:27:31;;;;;;;2.08;1.90;;;12.70;91.40;;;;;;4906350;29;20032;-65
2021/10/15 10:29:58;;;;;;;1.88;1.65;;;12.80;91.10;;;;;;4905668;29;20020;-66
2021/10/15 10:32:24;;;;;;;2.35;1.38;;;12.80;90.90;;;;;;4908336;29;20067;-66
2021/10/15 10:34:51;;;;;;;3.20;1.80;;;12.90;90.70;;;;;;4896985;29;20621;-66
2021/10/15 10:37:18;;;;;;;2.65;1.77;;;13.00;90.80;;;;;;4895299;29;20040;-66
2021/10/15 10:39:45;;;;;;;2.47;1.52;;;13.00;90.60;;;;;;4881589;29;20028;-67
2021/10/15 10:42:15;;;;;;;1.95;1.60;;;13.20;90.50;;;;;;4886184;29;20033;-66
2021/10/15 10:44:50;;;;;;;2.65;2.13;;;13.20;90.30;;;;;;4894140;29;20389;-66
2021/10/15 10:47:22;;;;;;;2.50;1.83;;;13.30;90.00;;;;;;4891942;29;20092;-66
2021/10/15 10:50:06;;;;;;;;;;;13.40;89.70;;;;;;4898296;29;20052;-66
2021/10/15 10:52:34;;;;;;;2.40;1.42;;;13.50;90.00;;;;;;4888940;29;20261;-67
2021/10/15 10:54:59;;;;;;;1.55;1.20;;;13.50;90.00;;;;;;4893772;29;20108;-67
2021/10/15 10:57:31;;;;;;;3.25;1.50;;;13.60;89.70;;;;;;4894397;29;20153;-67
2021/10/15 11:00:24;;;;;;;2.72;1.45;;;13.70;89.50;;;;;;4889877;29;20787;-66
2021/10/15 11:02:55;;;;;;;1.90;1.60;;;13.80;89.20;;;;;;4882197;29;20533;-66
2021/10/15 11:05:34;;;;;;;1.80;1.60;;;13.90;89.10;;;;;;4884499;29;20029;-66
2021/10/15 11:08:24;;;;;;;1.73;1.52;;;14.00;88.50;;;;;;4892003;29;20363;-67
2021/10/15 11:11:13;;;;;;;2.17;1.60;;;14.10;88.30;;;;;;4890372;29;20061;-67
2021/10/15 11:13:39;;;;;;;3.85;1.73;;;14.30;88.60;;;;;;4895965;29;20056;-66
2021/10/15 11:16:25;;;;;;;3.15;1.67;;;14.50;88.30;;;;;;4894056;29;20052;-66
2021/10/15 11:18:52;;;;;;;3.65;1.60;;;14.70;87.80;;;;;;4887172;29;20411;-66
2021/10/15 11:21:20;;;;;;;2.67;1.33;;;14.90;87.90;;;;;;4894369;29;20035;-66
2021/10/15 11:23:47;;;;;;;3.85;1.48;;;15.00;87.50;;;;;;4889028;29;20031;-66
2021/10/15 11:26:13;;;;;;;1.50;1.38;;;15.20;86.70;;;;;;4889419;29;20434;-67
2021/10/15 11:28:38;;;;;;;1.30;1.20;;;15.20;86.70;;;;;;4889423;29;20056;-65
2021/10/15 11:31:08;;;;;;;3.53;1.30;;;15.50;86.60;;;;;;4890790;29;20549;-67
2021/10/15 11:33:38;;;;;;;3.88;1.80;;;15.60;86.10;;;;;;4895008;29;20397;-66
2021/10/15 11:36:04;;;;;;;2.10;1.60;;;15.70;85.80;;;;;;4895537;29;20048;-66
2021/10/15 11:38:30;;;;;;;2.55;1.60;;;15.80;85.40;;;;;;4887889;29;21083;-66
2021/10/15 11:41:05;;;;;;;1.77;1.60;;;16.00;85.00;;;;;;4894248;29;20056;-66
2021/10/15 11:43:41;;;;;;;1.58;1.42;;;16.10;84.80;;;;;;4890118;29;20397;-66
2021/10/15 11:46:18;;;;;;;4.00;1.52;;;16.30;84.50;;;;;;4894326;29;20044;-66
2021/10/15 11:48:45;;;;;;;2.85;1.80;;;16.50;84.10;;;;;;4893704;29;20115;-66
2021/10/15 11:51:16;;;;;;;4.10;1.50;;;16.60;83.30;;;;;;4888664;29;20032;-69
2021/10/15 11:53:55;;;;;;;3.40;1.65;;;16.70;82.80;;;;;;4895831;29;20029;-66
2021/10/15 11:56:22;;;;;;;3.53;1.60;;;16.80;82.40;;;;;;4892711;29;20033;-66
2021/10/15 11:59:00;;;;;;;3.85;1.70;;;17.00;82.40;;;;;;4889278;29;20034;-66
2021/10/15 12:01:30;;;;;;;1.67;1.58;;;17.10;81.80;;;;;;4891300;29;20025;-67
2021/10/15 12:04:03;;;;;;;2.35;1.60;;;17.30;81.30;;;;;;4889237;29;20033;-67
2021/10/15 12:06:35;;;;;;;2.95;1.30;;;17.50;80.90;;;;;;4891480;29;20084;-67
2021/10/15 12:09:16;;;;;;;3.23;1.87;;;17.60;80.30;;;;;;4887700;29;20043;-66
2021/10/15 12:11:50;;;;;;;2.33;2.00;;;17.70;79.30;;;;;;4891677;29;20041;-67
2021/10/15 12:14:34;;;;;;;3.83;2.28;;;17.80;79.10;;;;;;4894659;29;20033;-67
2021/10/15 12:17:08;;;;;;;3.53;1.70;;;17.90;77.40;;;;;;4890078;29;20028;-67
2021/10/15 12:19:47;;;;;;;2.25;2.05;;;17.90;78.20;;;;;;4891367;29;20037;-67
2021/10/15 12:22:15;;;;;;;5.07;2.35;;;17.90;78.00;;;;;;4889768;29;20035;-66
2021/10/15 12:24:48;;;;;;;2.75;2.42;;;18.00;78.00;;;;;;4886201;29;20029;-67
2021/10/15 12:27:25;;;;;;;3.83;2.05;;;17.90;76.80;;;;;;4891134;29;20517;-66
2021/10/15 12:29:59;;;;;;;13.45;8.63;;;17.80;76.60;;;;;;4886263;29;20047;-67
2021/10/15 12:32:35;;;;;;;3.92;2.60;;;17.60;76.50;;;;;;4886057;29;20040;-67
2021/10/15 12:35:24;;;;;;;3.78;2.70;;;17.40;75.70;;;;;;4884204;29;20037;-67
2021/10/15 12:37:50;;;;;;;3.55;2.42;;;17.20;76.10;;;;;;4888141;29;20520;-67
2021/10/15 12:40:21;;;;;;;3.58;2.75;;;17.00;76.70;;;;;;4883721;29;20705;-66
2021/10/15 12:42:56;;;;;;;4.72;2.80;;;16.80;76.50;;;;;;4881803;29;20025;-66
2021/10/15 12:45:26;;;;;;;14.75;3.28;;;16.70;76.50;;;;;;4886238;29;20104;-66
2021/10/15 12:48:00;;;;;;;4.07;2.97;;;16.50;76.80;;;;;;4882775;29;20119;-67
2021/10/15 12:50:28;;;;;;;3.53;2.88;;;16.40;76.60;;;;;;4882372;29;20064;-67
2021/10/15 12:52:55;;;;;;;4.25;3.83;;;16.20;77.10;;;;;;4889238;29;20096;-68
2021/10/15 12:55:28;;;;;;;3.58;3.15;;;16.10;76.90;;;;;;5085865;27;20450;-66
2021/10/15 12:58:05;;;;;;;5.53;3.40;;;15.90;77.20;;;;;;5070582;28;20017;-66
2021/10/15 13:00:32;;;;;;;5.53;3.20;;;15.80;77.10;;;;;;5060632;28;20029;-66
2021/10/15 13:03:03;;;;;;;5.40;3.55;;;15.70;77.40;;;;;;5060099;28;20052;-66
2021/10/15 13:05:30;;;;;;;7.10;3.78;;;15.60;77.70;;;;;;5058494;28;20021;-66
2021/10/15 13:07:56;;;;;;;5.30;3.50;;;15.50;77.80;;;;;;5059136;28;20021;-66
2021/10/15 13:10:23;;;;;;;4.50;3.60;;;15.50;78.00;;;;;;5055266;28;20025;-66
2021/10/15 13:12:50;;;;;;;3.15;2.78;;;15.30;77.70;;;;;;5061255;28;20551;-66